Time;durP1;ratioP1;P1;durP2;ratioP2;P2;SDS_P1;SDS_P2;PMS_P1;PMS_P2;Temp;Humidity;BMP_temperature;BMP_pressure;BME280_temperature;BME280_humidity;BME280_pressure;Samples;Min_cycle;Max_cycle;Signal;HPM_P1;HPM_P2
2021/09/15 00:02:14;;;;;;;;;6.75;6.25;;;;;22.25;72.46;100908.50;4921265;28;45678;-95
2021/09/15 00:04:39;;;;;;;;;6.75;5.00;;;;;22.21;73.16;100896.34;4923855;28;46812;-96
2021/09/15 00:07:05;;;;;;;;;9.00;9.00;;;;;22.20;71.71;100899.16;4906706;28;47032;-90
2021/09/15 00:09:30;;;;;;;;;8.75;8.25;;;;;22.23;71.99;100899.75;4916031;28;45422;-90
2021/09/15 00:11:56;;;;;;;;;6.50;6.00;;;;;22.18;72.48;100895.72;4904639;29;45282;-90
2021/09/15 00:14:22;;;;;;;;;5.25;5.25;;;;;22.16;72.32;100890.50;4916450;28;45857;-90
2021/09/15 00:16:47;;;;;;;;;7.75;6.00;;;;;22.13;72.18;100886.25;4921392;28;46285;-89
2021/09/15 00:19:13;;;;;;;;;6.25;6.25;;;;;22.18;72.29;100896.59;4920111;28;45499;-90
2021/09/15 00:21:38;;;;;;;;;6.00;6.00;;;;;22.20;72.21;100902.66;4922541;28;45825;-84
2021/09/15 00:24:04;;;;;;;;;7.75;7.75;;;;;22.19;71.87;100909.00;4921087;28;45541;-84
2021/09/15 00:26:29;;;;;;;;;10.00;7.75;;;;;22.24;71.17;100916.66;4898406;29;47470;-85
2021/09/15 00:28:55;;;;;;;;;7.00;7.00;;;;;22.24;71.14;100909.50;4897139;28;45983;-84
2021/09/15 00:31:20;;;;;;;;;5.00;5.00;;;;;22.23;71.35;100902.41;4921540;28;45370;-83
2021/09/15 00:33:45;;;;;;;;;5.75;5.75;;;;;22.20;71.23;100891.13;4917018;28;46005;-89
2021/09/15 00:36:11;;;;;;;;;6.25;6.25;;;;;22.21;71.40;100888.31;4917162;28;45361;-87
2021/09/15 00:38:36;;;;;;;;;6.00;6.00;;;;;22.24;71.32;100882.72;4904269;28;45426;-87
2021/09/15 00:41:02;;;;;;;;;7.00;4.50;;;;;22.20;71.37;100886.59;4922479;28;45573;-87
2021/09/15 00:43:27;;;;;;;;;8.00;6.50;;;;;22.23;71.46;100886.38;4903783;28;45800;-87
2021/09/15 00:45:52;;;;;;;;;5.75;5.00;;;;;22.21;71.76;100880.28;4922009;28;46154;-86
2021/09/15 00:48:18;;;;;;;;;10.25;8.50;;;;;22.19;71.17;100868.84;4902848;28;45277;-87
2021/09/15 00:50:43;;;;;;;;;5.25;5.25;;;;;22.21;71.26;100866.91;4920853;28;45768;-87
2021/09/15 00:53:09;;;;;;;;;9.25;6.25;;;;;22.23;70.95;100872.97;4919768;28;45313;-86
2021/09/15 00:55:34;;;;;;;;;7.00;6.00;;;;;22.23;70.82;100870.31;4920812;28;45620;-89
2021/09/15 00:58:00;;;;;;;;;5.50;5.25;;;;;22.24;70.97;100872.00;4904393;28;45935;-89
2021/09/15 01:00:26;;;;;;;;;8.00;8.00;;;;;22.24;71.33;100868.47;4904261;28;45731;-88
2021/09/15 01:02:52;;;;;;;;;4.25;4.25;;;;;22.23;71.39;100864.94;4920770;28;45318;-87
2021/09/15 01:05:17;;;;;;;;;4.75;4.75;;;;;22.24;71.51;100869.34;4919922;28;45203;-86
2021/09/15 01:07:43;;;;;;;;;7.25;6.25;;;;;22.21;70.71;100866.03;4916572;28;45273;-86
2021/09/15 01:10:09;;;;;;;;;5.50;5.50;;;;;22.26;71.04;100875.41;4911704;28;45492;-86
2021/09/15 01:12:36;;;;;;;;;5.00;5.00;;;;;22.24;71.30;100872.00;4920353;28;46489;-87
2021/09/15 01:15:02;;;;;;;;;5.25;3.50;;;;;22.25;71.43;100864.81;4919637;28;47346;-84
2021/09/15 01:17:27;;;;;;;;;6.00;6.00;;;;;22.23;71.05;100872.13;4904389;28;45361;-80
2021/09/15 01:19:53;;;;;;;;;4.00;3.25;;;;;22.26;71.43;100859.34;4921197;28;45534;-87
2021/09/15 01:22:18;;;;;;;;;4.50;4.50;;;;;22.23;72.15;100848.88;4904513;28;47370;-88
2021/09/15 01:24:44;;;;;;;;;6.00;4.75;;;;;22.20;72.14;100857.16;4920991;28;46433;-89
2021/09/15 01:27:09;;;;;;;;;4.00;4.00;;;;;22.17;72.39;100853.91;4918896;28;45211;-90
2021/09/15 01:29:35;;;;;;;;;3.75;3.25;;;;;22.09;72.54;100852.69;4916750;28;45257;-87
2021/09/15 01:32:06;;;;;;;;;4.25;4.25;;;;;22.10;71.90;100857.06;4919625;28;45222;-86
2021/09/15 01:34:40;;;;;;;;;4.00;3.00;;;;;22.01;72.84;100855.97;4914820;28;45411;-86
2021/09/15 01:37:07;;;;;;;;;7.75;6.00;;;;;22.01;72.50;100857.81;4908768;28;45552;-84
2021/09/15 01:39:33;;;;;;;;;6.25;6.00;;;;;21.99;72.80;100863.28;4918998;28;45282;-84
2021/09/15 01:42:00;;;;;;;;;3.75;3.75;;;;;22.02;73.46;100864.88;4915074;28;45490;-85
2021/09/15 01:44:43;;;;;;;;;5.25;4.00;;;;;21.99;73.30;100863.28;4906820;28;45402;-85
2021/09/15 01:47:10;;;;;;;;;5.50;3.75;;;;;21.92;73.68;100854.06;4918017;28;45555;-84
2021/09/15 01:49:37;;;;;;;;;5.00;5.00;;;;;21.96;73.51;100862.66;4916642;28;45240;-87
2021/09/15 01:52:04;;;;;;;;;5.00;4.00;;;;;21.94;73.67;100864.63;4920612;28;46085;-88
2021/09/15 01:54:32;;;;;;;;;5.25;4.25;;;;;21.88;73.64;100852.56;4908723;28;46614;-88
2021/09/15 01:56:57;;;;;;;;;5.00;3.00;;;;;21.86;73.98;100854.50;4904241;28;45311;-88
2021/09/15 01:59:23;;;;;;;;;4.50;4.25;;;;;21.84;73.47;100846.59;4918548;28;45440;-96
2021/09/15 02:01:48;;;;;;;;;7.00;5.00;;;;;21.90;74.29;100862.19;4903656;28;46367;-96
2021/09/15 02:04:14;;;;;;;;;8.00;5.00;;;;;21.88;73.82;100855.25;4902229;28;47077;-87
2021/09/15 02:06:39;;;;;;;;;5.25;5.00;;;;;21.86;73.24;100857.16;4920708;28;45288;-87
2021/09/15 02:09:05;;;;;;;;;5.00;4.50;;;;;21.90;73.65;100866.69;4921934;28;45961;-87
2021/09/15 02:11:31;;;;;;;;;5.50;4.25;;;;;21.85;74.17;100859.00;4920375;28;45302;-87
2021/09/15 02:13:57;;;;;;;;;4.50;4.25;;;;;21.87;74.05;100861.59;4920516;28;46217;-87
2021/09/15 02:16:22;;;;;;;;;6.00;5.00;;;;;21.89;73.65;100868.53;4908018;28;45907;-90
2021/09/15 02:18:48;;;;;;;;;4.50;4.50;;;;;21.85;74.04;100872.38;4902456;28;45619;-88
2021/09/15 02:21:13;;;;;;;;;6.00;5.00;;;;;21.86;73.88;100867.88;4900368;28;46069;-88
2021/09/15 02:23:39;;;;;;;;;6.50;6.25;;;;;21.82;74.22;100867.28;4902822;28;46549;-88
2021/09/15 02:26:05;;;;;;;;;5.25;5.25;;;;;21.81;74.52;100874.44;4916525;28;45319;-89
2021/09/15 02:28:30;;;;;;;;;7.00;6.00;;;;;21.77;74.24;100864.97;4917187;28;45468;-89
2021/09/15 02:30:55;;;;;;;;;6.25;4.50;;;;;21.75;74.16;100866.91;4903318;28;47229;-88
2021/09/15 02:33:21;;;;;;;;;10.00;7.25;;;;;21.76;74.91;100868.59;4903810;28;47095;-87
2021/09/15 02:35:46;;;;;;;;;4.50;4.50;;;;;21.77;74.40;100875.66;4920216;28;45630;-94
2021/09/15 02:38:11;;;;;;;;;5.75;5.75;;;;;21.76;74.29;100879.31;4913639;28;45556;-87
2021/09/15 02:40:37;;;;;;;;;6.50;5.75;;;;;21.76;73.84;100878.44;4910157;28;45315;-89
2021/09/15 02:43:03;;;;;;;;;6.25;5.25;;;;;21.79;72.99;100883.56;4920744;28;45364;-95
2021/09/15 02:45:28;;;;;;;;;7.00;7.00;;;;;21.83;74.47;100894.88;4919180;28;45453;-87
2021/09/15 02:47:54;;;;;;;;;8.00;5.25;;;;;21.81;74.04;100898.53;4917355;28;45301;-87
2021/09/15 02:50:19;;;;;;;;;8.50;6.00;;;;;21.86;73.81;100903.53;4901452;28;46429;-92
2021/09/15 02:52:45;;;;;;;;;5.50;5.00;;;;;21.83;73.63;100898.38;4920196;28;45305;-92
2021/09/15 02:55:10;;;;;;;;;5.00;5.00;;;;;21.85;72.33;100895.59;4920437;28;45450;-86
2021/09/15 02:57:35;;;;;;;;;6.00;5.00;;;;;21.88;72.90;100892.69;4921999;28;45621;-87
2021/09/15 03:00:01;;;;;;;;;8.00;7.25;;;;;21.91;72.99;100892.47;4920289;28;45310;-86
2021/09/15 03:02:26;;;;;;;;;5.75;5.00;;;;;21.95;72.79;100888.59;4922732;28;45452;-96
2021/09/15 03:04:52;;;;;;;;;6.00;4.00;;;;;21.92;73.76;100876.31;4922171;28;45374;-87
2021/09/15 03:07:17;;;;;;;;;5.25;5.00;;;;;21.90;73.46;100870.22;4906851;28;45348;-87
2021/09/15 03:09:42;;;;;;;;;6.75;5.75;;;;;21.91;73.67;100871.91;4906243;28;45274;-87
2021/09/15 03:12:08;;;;;;;;;6.00;5.00;;;;;21.93;73.85;100874.47;4923475;28;46080;-91
2021/09/15 03:14:33;;;;;;;;;7.50;6.00;;;;;21.91;74.26;100871.06;4923167;28;45349;-85
2021/09/15 03:16:59;;;;;;;;;4.25;4.25;;;;;21.89;73.66;100865.84;4924257;28;45521;-88
2021/09/15 03:19:24;;;;;;;;;8.25;6.00;;;;;21.88;74.19;100856.09;4923454;28;45641;-89
2021/09/15 03:21:49;;;;;;;;;5.50;5.00;;;;;21.89;74.37;100865.00;4920721;28;46359;-90
2021/09/15 03:24:15;;;;;;;;;7.25;6.00;;;;;21.85;73.83;100859.00;4922470;28;45442;-90
2021/09/15 03:26:40;;;;;;;;;5.00;5.00;;;;;21.86;74.34;100862.53;4923370;28;45733;-91
2021/09/15 03:29:06;;;;;;;;;7.50;7.50;;;;;21.81;74.53;100866.41;4905425;28;47238;-91
2021/09/15 03:31:31;;;;;;;;;7.25;5.00;;;;;21.77;74.29;100869.47;4924371;28;45449;-92
2021/09/15 03:33:57;;;;;;;;;4.75;4.75;;;;;21.73;74.62;100871.50;4925119;28;45466;-96
2021/09/15 03:36:22;;;;;;;;;7.00;6.25;;;;;21.69;74.69;100873.59;4912955;28;45339;-94
2021/09/15 03:38:47;;;;;;;;;4.25;4.25;;;;;21.66;73.81;100878.31;4911835;28;46097;-93
2021/09/15 03:41:13;;;;;;;;;4.00;4.00;;;;;21.68;74.48;100884.41;4922296;28;45222;-90
2021/09/15 03:43:40;;;;;;;;;5.25;5.25;;;;;21.64;74.11;100875.78;4900245;28;45537;-90
2021/09/15 03:46:05;;;;;;;;;5.50;5.50;;;;;21.67;73.72;100880.03;4924017;28;45163;-91
2021/09/15 03:48:30;;;;;;;;;4.00;4.00;;;;;21.73;73.40;100884.06;4922625;28;45222;-91
2021/09/15 03:50:56;;;;;;;;;7.00;7.00;;;;;21.72;73.64;100882.34;4922685;28;45291;-91
2021/09/15 03:53:21;;;;;;;;;7.00;6.50;;;;;21.73;73.59;100884.88;4920604;28;45223;-90
2021/09/15 03:55:47;;;;;;;;;5.75;5.75;;;;;21.75;74.08;100891.00;4923532;28;45630;-96
2021/09/15 03:58:12;;;;;;;;;7.25;6.00;;;;;21.70;73.90;100885.16;4906753;28;46013;-89
2021/09/15 04:00:38;;;;;;;;;5.25;5.00;;;;;21.73;74.44;100890.22;4922486;28;45339;-93
2021/09/15 04:03:35;;;;;;;;;;;;;;;;;;;;;
2021/09/15 04:06:01;;;;;;;;;5.50;5.00;;;;;21.69;74.22;100896.81;4923496;28;67887;-94
2021/09/15 04:08:39;;;;;;;;;;;;;;;;;;;;;
2021/09/15 04:11:05;;;;;;;;;6.00;4.50;;;;;21.61;74.50;100881.34;4906498;28;75410;-86
2021/09/15 04:13:30;;;;;;;;;6.00;6.00;;;;;21.67;74.28;100888.06;4921458;28;45539;-88
2021/09/15 04:15:56;;;;;;;;;5.25;4.50;;;;;21.65;73.05;100888.19;4922482;28;45629;-90
2021/09/15 04:18:22;;;;;;;;;6.25;5.75;;;;;21.65;74.20;100890.00;4923405;28;45542;-92
2021/09/15 04:20:47;;;;;;;;;6.75;6.75;;;;;21.68;73.74;100895.13;4921700;28;46291;-87
2021/09/15 04:23:20;;;;;;;;;6.00;6.00;;;;;21.68;73.71;100897.78;4921941;28;45508;-89
2021/09/15 04:33:51;;;;;;;;;8.75;7.75;;;;;21.79;73.75;100886.25;4914700;28;44819;-96
2021/09/15 04:36:18;;;;;;;;;6.00;6.00;;;;;21.78;73.72;100885.38;4921297;28;45248;-86
2021/09/15 04:38:43;;;;;;;;;6.00;5.00;;;;;21.85;72.86;100895.59;4911270;28;45398;-88
2021/09/15 04:41:09;;;;;;;;;8.00;7.00;;;;;21.86;73.52;100889.28;4903206;28;47190;-81
2021/09/15 04:43:34;;;;;;;;;6.25;4.50;;;;;21.83;72.67;100878.84;4919950;28;45492;-87
2021/09/15 04:46:00;;;;;;;;;7.25;6.25;;;;;21.88;73.19;100890.03;4920440;28;45320;-88
2021/09/15 04:48:25;;;;;;;;;7.25;5.50;;;;;21.86;72.49;100882.13;4923074;28;45326;-88
2021/09/15 04:50:51;;;;;;;;;3.50;3.25;;;;;21.88;72.17;100882.00;4921755;28;46059;-87
2021/09/15 04:53:16;;;;;;;;;5.75;4.75;;;;;21.90;72.79;100885.44;4920843;28;45629;-90
2021/09/15 04:55:42;;;;;;;;;7.50;6.00;;;;;21.88;73.54;100882.00;4918937;28;45373;-88
2021/09/15 04:58:07;;;;;;;;;6.00;6.00;;;;;21.88;72.56;100876.66;4906162;28;45423;-87
2021/09/15 05:00:33;;;;;;;;;6.25;5.75;;;;;21.88;72.93;100885.53;4904863;28;47948;-86
2021/09/15 05:02:58;;;;;;;;;4.00;4.00;;;;;21.89;72.50;100881.03;4918513;28;45357;-88
2021/09/15 05:05:24;;;;;;;;;9.00;9.00;;;;;21.89;73.08;100889.06;4919819;28;45280;-93
2021/09/15 05:07:50;;;;;;;;;7.25;7.25;;;;;21.85;73.59;100896.47;4922723;28;45239;-95
2021/09/15 05:10:15;;;;;;;;;7.00;7.00;;;;;21.85;73.95;100903.63;4920539;28;46005;-87
2021/09/15 05:12:41;;;;;;;;;9.00;8.00;;;;;21.85;74.16;100898.28;4920829;28;45276;-96
2021/09/15 05:15:07;;;;;;;;;10.25;8.25;;;;;21.74;74.06;100901.78;4903060;28;45269;-92
2021/09/15 05:17:32;;;;;;;;;8.50;8.00;;;;;21.72;74.32;100899.25;4922198;28;45588;-90
2021/09/15 05:19:58;;;;;;;;;8.50;7.75;;;;;21.69;74.35;100892.31;4915674;28;46292;-88
2021/09/15 05:22:23;;;;;;;;;4.00;3.00;;;;;21.75;73.65;100904.38;4894793;28;45353;-88
2021/09/15 05:24:49;;;;;;;;;6.75;6.75;;;;;21.76;73.65;100906.06;4922189;28;45322;-88
2021/09/15 05:27:14;;;;;;;;;7.25;6.00;;;;;21.73;73.84;100900.09;4893032;28;47238;-95
2021/09/15 05:29:39;;;;;;;;;9.25;5.25;;;;;21.78;73.90;100914.81;4921531;28;46474;-94
2021/09/15 05:32:05;;;;;;;;;5.50;5.50;;;;;21.76;72.68;100900.69;4936859;28;45784;-96
2021/09/15 05:35:13;;;;;;;;;7.50;5.75;;;;;21.78;73.05;100908.63;4925238;28;45434;-96
2021/09/15 05:37:38;;;;;;;;;2.00;2.00;;;;;21.83;72.63;100910.94;5379537;23;46779;-96
2021/09/15 05:40:05;;;;;;;;;5.00;5.00;;;;;21.85;73.14;100912.53;4914815;28;47176;-96
2021/09/15 05:42:30;;;;;;;;;5.75;5.75;;;;;21.87;72.54;100912.41;4910578;28;44996;-96
2021/09/15 05:44:58;;;;;;;;;7.75;7.00;;;;;21.84;72.71;100913.47;4901779;28;47537;-85
2021/09/15 05:47:23;;;;;;;;;8.00;7.75;;;;;21.89;73.08;100915.81;4913791;28;45298;-88
2021/09/15 05:49:49;;;;;;;;;5.00;5.00;;;;;21.88;72.49;100919.47;4893350;28;47250;-87
2021/09/15 05:52:14;;;;;;;;;4.50;4.25;;;;;21.88;71.83;100919.47;4903813;28;45483;-88
2021/09/15 05:54:39;;;;;;;;;6.75;5.25;;;;;21.92;72.16;100924.47;4918396;28;45485;-93
2021/09/15 05:57:05;;;;;;;;;6.00;5.50;;;;;21.91;71.90;100924.56;4915223;28;46399;-92
2021/09/15 05:59:31;;;;;;;;;6.50;5.00;;;;;21.93;71.20;100927.97;4919997;28;46203;-91
2021/09/15 06:01:57;;;;;;;;;4.00;4.00;;;;;21.94;71.75;100928.84;4919653;28;45295;-91
2021/09/15 06:04:22;;;;;;;;;7.00;7.00;;;;;21.94;71.94;100934.19;4920289;28;45915;-92
2021/09/15 06:06:48;;;;;;;;;7.00;4.50;;;;;21.99;71.50;100935.53;4920637;28;45544;-92
2021/09/15 06:09:13;;;;;;;;;7.75;6.75;;;;;22.00;72.38;100939.91;4891736;28;46890;-91
2021/09/15 06:11:38;;;;;;;;;7.50;7.50;;;;;21.97;72.20;100934.81;4904237;28;45502;-91
2021/09/15 06:14:04;;;;;;;;;4.75;4.75;;;;;21.96;71.38;100929.56;4920230;28;45214;-92
2021/09/15 06:16:29;;;;;;;;;4.75;4.75;;;;;22.00;71.63;100934.53;4920017;28;46048;-87
2021/09/15 06:18:55;;;;;;;;;8.00;6.00;;;;;22.01;72.25;100933.59;4899888;28;47472;-87
2021/09/15 06:21:20;;;;;;;;;26.50;19.50;;;;;22.03;72.77;100936.97;4912193;28;45288;-84
2021/09/15 06:23:45;;;;;;;;;17.75;10.25;;;;;22.05;72.28;100942.22;4903303;28;45436;-85
2021/09/15 06:26:11;;;;;;;;;44.25;28.00;;;;;21.99;72.95;100929.31;4917542;28;45315;-90
2021/09/15 06:28:37;;;;;;;;;23.50;16.25;;;;;21.97;72.72;100933.94;4913931;28;45380;-90
2021/09/15 06:31:04;;;;;;;;;8.50;7.25;;;;;21.99;72.48;100938.22;4923434;28;45363;-92
2021/09/15 06:33:31;;;;;;;;;14.00;9.25;;;;;21.94;73.05;100935.03;4907926;28;45303;-85
2021/09/15 06:35:56;;;;;;;;;8.75;5.00;;;;;21.94;72.42;100937.72;4918191;28;46116;-85
2021/09/15 06:38:22;;;;;;;;;6.25;5.50;;;;;21.94;71.92;100945.75;4894507;28;46232;-90
2021/09/15 06:40:47;;;;;;;;;7.25;6.75;;;;;21.98;72.58;100947.19;4911911;28;45224;-87
2021/09/15 06:43:13;;;;;;;;;10.00;7.75;;;;;21.97;72.69;100945.50;4906609;28;45218;-82
2021/09/15 06:45:38;;;;;;;;;8.75;8.00;;;;;21.98;72.14;100947.19;4920501;28;45724;-83
2021/09/15 06:48:04;;;;;;;;;8.00;7.50;;;;;22.00;72.05;100950.59;4897314;28;47235;-83
2021/09/15 06:50:30;;;;;;;;;6.25;6.00;;;;;22.03;71.58;100955.72;4922543;28;45224;-82
2021/09/15 06:52:56;;;;;;;;;6.75;6.75;;;;;22.05;71.62;100957.44;4920672;28;45472;-83
2021/09/15 06:55:23;;;;;;;;;8.50;5.00;;;;;22.08;71.33;100955.34;4899632;28;45502;-82
2021/09/15 06:57:50;;;;;;;;;8.00;8.00;;;;;22.12;71.41;100955.97;4924056;28;46619;-82
2021/09/15 07:00:18;;;;;;;;;5.50;5.25;;;;;22.13;71.13;100960.34;4905226;28;45242;-83
2021/09/15 07:02:44;;;;;;;;;7.50;7.50;;;;;22.15;71.88;100959.25;4904481;28;45504;-83
2021/09/15 07:05:09;;;;;;;;;7.00;6.00;;;;;22.12;71.31;100955.97;4906784;28;46503;-83
2021/09/15 07:07:35;;;;;;;;;7.50;6.00;;;;;22.15;71.01;100967.28;4902624;28;46869;-82
2021/09/15 07:10:00;;;;;;;;;7.50;7.50;;;;;22.15;70.92;100961.06;4921702;28;45468;-82
2021/09/15 07:12:25;;;;;;;;;7.75;7.75;;;;;22.16;71.74;100960.09;4914039;28;45408;-82
2021/09/15 07:14:51;;;;;;;;;8.25;6.25;;;;;22.19;71.16;100970.56;4906972;28;46214;-82
2021/09/15 07:17:16;;;;;;;;;6.00;6.00;;;;;22.15;70.94;100971.78;4923726;28;45481;-82
2021/09/15 07:19:42;;;;;;;;;5.75;5.75;;;;;22.17;70.86;100969.84;4922815;28;45408;-83
2021/09/15 07:22:07;;;;;;;;;7.25;5.50;;;;;22.20;71.08;100987.50;4916547;28;45474;-83
2021/09/15 07:24:32;;;;;;;;;6.25;6.00;;;;;22.16;70.72;100981.50;4888122;29;46270;-83
2021/09/15 07:26:58;;;;;;;;;8.50;7.50;;;;;22.17;70.86;100985.06;4890674;29;47221;-82
2021/09/15 07:29:23;;;;;;;;;7.25;6.25;;;;;22.16;70.63;100986.88;4889653;29;46613;-83
2021/09/15 07:31:48;;;;;;;;;6.25;5.25;;;;;22.18;70.24;100986.72;4920244;28;45382;-82
2021/09/15 07:34:14;;;;;;;;;9.75;7.00;;;;;22.15;70.81;100985.16;4921403;28;45302;-82
2021/09/15 07:36:39;;;;;;;;;8.25;7.25;;;;;22.19;71.37;100993.81;4921029;28;46269;-82
2021/09/15 07:39:07;;;;;;;;;7.50;6.00;;;;;22.18;71.10;100990.28;4921851;28;45457;-82
2021/09/15 07:41:33;;;;;;;;;6.00;6.00;;;;;22.16;70.92;100992.22;4912864;28;45311;-83
2021/09/15 07:43:59;;;;;;;;;6.00;6.00;;;;;22.16;70.86;100994.91;4906720;28;46152;-83
2021/09/15 07:46:25;;;;;;;;;5.75;5.75;;;;;22.15;71.39;100996.72;4923788;28;45474;-83
2021/09/15 07:48:51;;;;;;;;;11.00;8.75;;;;;22.19;72.27;100983.09;4923258;28;45474;-83
2021/09/15 07:51:17;;;;;;;;;12.00;6.50;;;;;22.13;71.85;100987.97;4923589;28;45422;-83
2021/09/15 07:53:42;;;;;;;;;10.25;7.00;;;;;22.11;71.46;100989.91;4920241;28;45343;-83
2021/09/15 07:56:08;;;;;;;;;11.25;9.25;;;;;22.10;72.34;100987.38;4915415;28;46293;-83
2021/09/15 07:58:33;;;;;;;;;10.50;7.75;;;;;22.08;72.78;100990.13;4911257;28;45410;-83
2021/09/15 08:00:59;;;;;;;;;7.50;7.00;;;;;22.09;72.18;100993.69;4923875;28;45477;-82
2021/09/15 08:03:25;;;;;;;;;6.75;6.00;;;;;22.08;72.62;100990.13;4923363;28;45386;-82
2021/09/15 08:05:50;;;;;;;;;7.00;6.50;;;;;22.09;71.43;101001.72;4922855;28;45418;-83
2021/09/15 08:08:16;;;;;;;;;6.25;6.25;;;;;22.13;71.40;100998.66;4923442;28;45488;-83
2021/09/15 08:10:41;;;;;;;;;6.50;5.00;;;;;22.11;71.60;100995.25;4923670;28;45302;-79
2021/09/15 08:13:07;;;;;;;;;11.00;9.25;;;;;22.13;72.10;101003.16;4923127;28;45252;-79
2021/09/15 08:15:32;;;;;;;;;19.75;14.00;;;;;22.15;72.48;100998.53;4911852;28;45620;-79
2021/09/15 08:17:58;;;;;;;;;13.00;10.50;;;;;22.13;72.62;100997.81;4904433;29;45319;-79
2021/09/15 08:20:23;;;;;;;;;11.75;9.00;;;;;22.12;73.36;100994.31;4908821;28;45430;-79
2021/09/15 08:22:49;;;;;;;;;15.50;13.75;;;;;22.14;73.45;100996.84;4921749;28;45230;-79
2021/09/15 08:25:15;;;;;;;;;10.75;10.75;;;;;22.12;73.07;100991.63;4920943;28;45557;-80
2021/09/15 08:27:40;;;;;;;;;15.00;11.00;;;;;22.14;73.48;100999.53;4904366;29;45437;-79
2021/09/15 08:30:06;;;;;;;;;11.00;9.00;;;;;22.18;73.66;101008.16;4905742;28;45424;-79
2021/09/15 08:32:32;;;;;;;;;9.25;6.50;;;;;22.19;73.57;101015.22;4922918;28;45567;-79
2021/09/15 08:34:57;;;;;;;;;11.00;8.00;;;;;22.19;73.92;101017.91;4918749;28;46375;-79
2021/09/15 08:37:23;;;;;;;;;12.50;10.00;;;;;22.15;73.85;101015.44;4911423;28;45519;-80
2021/09/15 08:39:48;;;;;;;;;7.50;7.50;;;;;22.20;73.99;101020.44;4920552;28;45425;-79
2021/09/15 08:42:13;;;;;;;;;7.50;6.25;;;;;22.20;73.74;101020.44;4911968;28;45454;-79
2021/09/15 08:44:39;;;;;;;;;9.75;7.25;;;;;22.19;73.65;101012.53;4914603;28;45339;-78
2021/09/15 08:47:06;;;;;;;;;8.00;6.00;;;;;22.20;74.18;101019.63;4911638;28;45497;-79
2021/09/15 08:49:33;;;;;;;;;6.00;6.00;;;;;22.18;73.97;101013.50;4917448;28;45180;-78
2021/09/15 08:51:59;;;;;;;;;7.75;6.00;;;;;22.18;73.33;101017.03;4915114;28;45316;-78
2021/09/15 08:54:24;;;;;;;;;8.00;8.00;;;;;22.21;73.64;101018.63;4921514;28;46819;-78
2021/09/15 08:56:50;;;;;;;;;7.00;7.00;;;;;22.23;73.79;101025.56;4918026;28;45164;-79
2021/09/15 08:59:15;;;;;;;;;10.50;6.75;;;;;22.27;74.07;101026.19;4914514;28;45449;-78
2021/09/15 09:01:45;;;;;;;;;8.00;7.50;;;;;22.32;73.48;101031.19;4922543;28;45489;-78
2021/09/15 09:04:14;;;;;;;;;7.25;5.75;;;;;22.33;74.00;101032.88;4921968;28;46617;-78
2021/09/15 09:06:40;;;;;;;;;9.75;6.25;;;;;22.34;73.65;101031.91;4908019;28;45404;-78
2021/09/15 09:09:06;;;;;;;;;8.00;7.50;;;;;22.35;73.76;101030.91;4920608;28;45361;-78
2021/09/15 09:11:34;;;;;;;;;9.50;8.00;;;;;22.40;73.44;101035.94;4922879;28;45422;-78
2021/09/15 09:14:03;;;;;;;;;11.75;8.75;;;;;22.37;73.81;101029.81;4906110;28;45459;-78
2021/09/15 09:16:42;;;;;;;;;7.25;7.00;;;;;22.39;73.46;101029.72;4918514;28;45210;-78
2021/09/15 09:19:11;;;;;;;;;8.00;8.00;;;;;22.40;73.56;101036.75;4904637;28;45682;-78
2021/09/15 09:21:41;;;;;;;;;10.25;7.25;;;;;22.42;73.59;101033.97;4900639;28;46209;-78
2021/09/15 09:24:10;;;;;;;;;10.00;10.00;;;;;22.42;73.75;101029.44;4913043;28;45559;-78
2021/09/15 09:26:54;;;;;;;;;9.00;8.00;;;;;22.48;74.06;101028.97;4920789;28;45397;-78
2021/09/15 09:29:27;;;;;;;;;12.25;8.25;;;;;22.49;73.60;101032.50;4920182;28;45497;-77
2021/09/15 09:32:03;;;;;;;;;9.50;9.50;;;;;22.47;73.72;101029.94;4921344;28;45453;-78
2021/09/15 09:34:38;;;;;;;;;8.00;6.75;;;;;22.49;74.14;101040.56;4912116;28;45635;-78
2021/09/15 09:37:09;;;;;;;;;8.25;8.00;;;;;22.47;74.33;101037.97;4917232;28;45445;-78
2021/09/15 09:39:42;;;;;;;;;8.00;8.00;;;;;22.51;73.85;101032.38;4907749;28;45282;-78
2021/09/15 09:42:22;;;;;;;;;8.50;7.75;;;;;22.59;73.86;101038.81;4902858;28;45228;-78
2021/09/15 09:44:52;;;;;;;;;7.00;5.00;;;;;22.63;73.05;101035.91;4913678;28;46168;-78
2021/09/15 09:47:19;;;;;;;;;8.75;8.00;;;;;22.66;73.72;101024.94;4919531;28;45284;-78
2021/09/15 09:49:58;;;;;;;;;7.50;6.75;;;;;22.72;73.58;101032.50;4919846;28;46440;-78
2021/09/15 09:52:23;;;;;;;;;8.00;7.00;;;;;22.78;73.51;101033.84;4919347;28;45582;-78
2021/09/15 09:55:04;;;;;;;;;9.75;9.50;;;;;22.84;72.97;101027.97;4914422;28;45552;-78
2021/09/15 09:57:30;;;;;;;;;9.50;8.50;;;;;22.88;73.12;101032.13;4918407;28;45554;-78
2021/09/15 09:59:57;;;;;;;;;10.50;9.00;;;;;22.92;73.59;101030.91;4919451;28;45467;-78
2021/09/15 10:02:23;;;;;;;;;8.00;7.25;;;;;22.93;73.11;101029.94;4918281;28;45780;-79
2021/09/15 10:04:48;;;;;;;;;10.00;8.75;;;;;22.95;73.40;101028.94;4918669;28;45386;-78
2021/09/15 10:07:15;;;;;;;;;6.75;6.75;;;;;22.96;73.49;101028.84;4918777;28;45450;-78
2021/09/15 10:09:43;;;;;;;;;10.75;9.75;;;;;22.97;72.77;101033.19;4920148;28;45490;-79
2021/09/15 10:12:10;;;;;;;;;11.50;9.00;;;;;22.98;73.11;101034.06;4919561;28;45557;-79
2021/09/15 10:14:36;;;;;;;;;8.00;6.50;;;;;23.00;73.13;101037.47;4918104;28;45437;-78
2021/09/15 10:17:13;;;;;;;;;8.50;7.50;;;;;22.97;73.32;101033.19;4920028;28;46403;-78
2021/09/15 10:19:43;;;;;;;;;8.00;7.50;;;;;23.00;73.13;101032.09;4902382;28;45968;-78
2021/09/15 10:22:08;;;;;;;;;9.50;8.00;;;;;22.99;72.56;101031.25;4904434;28;45517;-78
2021/09/15 10:24:57;;;;;;;;;7.00;6.75;;;;;23.05;73.12;101032.56;4920537;28;46062;-78
2021/09/15 10:27:28;;;;;;;;;8.00;7.50;;;;;23.04;73.32;101028.19;4920371;28;45370;-78
2021/09/15 10:30:06;;;;;;;;;8.75;8.75;;;;;23.05;73.09;101029.91;4916410;28;45484;-78
2021/09/15 10:32:33;;;;;;;;;9.00;9.00;;;;;22.99;72.86;101028.56;4913587;28;45457;-78
2021/09/15 10:35:00;;;;;;;;;9.25;8.25;;;;;22.98;73.37;101036.75;4901840;29;46746;-77
2021/09/15 10:37:29;;;;;;;;;9.75;7.00;;;;;22.96;72.95;101042.22;4908650;28;45495;-78
2021/09/15 10:39:56;;;;;;;;;12.00;11.75;;;;;22.88;73.75;101039.31;4913758;28;45401;-78
2021/09/15 10:42:46;;;;;;;;;9.00;8.00;;;;;22.88;73.07;101045.53;4916640;28;45544;-78
2021/09/15 10:45:15;;;;;;;;;8.25;7.00;;;;;22.80;72.49;101029.22;4920259;28;45547;-78
2021/09/15 10:48:08;;;;;;;;;8.00;7.00;;;;;22.80;72.06;101035.44;4920712;28;45345;-78
2021/09/15 10:50:37;;;;;;;;;6.75;5.00;;;;;22.85;73.76;101050.28;4910095;28;45716;-78
2021/09/15 10:53:03;;;;;;;;;7.25;6.25;;;;;22.82;72.62;101051.38;4913167;28;45508;-78
2021/09/15 10:55:47;;;;;;;;;7.00;6.00;;;;;22.77;72.95;101038.34;4917362;28;45361;-78
2021/09/15 10:58:14;;;;;;;;;8.25;4.75;;;;;22.79;72.32;101040.94;4915136;28;45397;-78
2021/09/15 11:00:57;;;;;;;;;6.75;5.25;;;;;22.81;72.01;101038.97;4900397;28;45547;-78
2021/09/15 11:03:30;;;;;;;;;6.25;5.00;;;;;22.81;73.79;101041.66;4914587;28;45525;-78
2021/09/15 11:06:19;;;;;;;;;4.50;3.25;;;;;22.82;72.70;101040.66;4918540;28;45663;-78
2021/09/15 11:08:47;;;;;;;;;7.25;6.75;;;;;22.86;72.33;101044.81;4912467;28;45302;-78
2021/09/15 11:11:19;;;;;;;;;7.25;6.00;;;;;22.93;71.84;101048.69;4921705;28;45236;-78
2021/09/15 11:13:45;;;;;;;;;7.00;5.00;;;;;22.94;73.18;101038.81;4923784;28;45326;-78
2021/09/15 11:16:28;;;;;;;;;4.00;4.00;;;;;23.01;71.75;101047.22;4923981;28;45532;-78
2021/09/15 11:18:58;;;;;;;;;5.25;5.25;;;;;23.04;72.31;101039.75;4921390;28;45545;-78
2021/09/15 11:21:24;;;;;;;;;4.50;4.25;;;;;23.04;73.85;101037.06;4915163;28;45259;-78
2021/09/15 11:23:54;;;;;;;;;5.25;4.75;;;;;23.05;72.51;101029.91;4910403;28;45712;-78
2021/09/15 11:26:40;;;;;;;;;3.75;3.00;;;;;23.12;73.66;101040.97;4924296;28;46395;-78
2021/09/15 11:29:06;;;;;;;;;6.25;5.75;;;;;23.05;72.66;101037.94;4910409;28;45138;-78
2021/09/15 11:31:33;;;;;;;;;5.50;4.50;;;;;23.06;72.61;101044.16;4924344;28;46644;-78
2021/09/15 11:34:17;;;;;;;;;8.50;6.75;;;;;23.07;73.51;101044.03;4906492;28;45393;-78
2021/09/15 11:36:49;;;;;;;;;9.75;7.75;;;;;23.08;73.89;101045.72;4910633;28;45331;-78